createdAt,value
2019-04-30T00:00:38.321Z,6.31
2019-04-30T00:03:15.956Z,6.28
2019-04-30T00:05:49.270Z,6.30
2019-04-30T00:08:16.327Z,6.30
2019-04-30T00:10:45.414Z,6.23
2019-04-30T00:13:17.527Z,6.16
2019-04-30T00:15:45.286Z,6.05
2019-04-30T00:18:18.402Z,6.16
2019-04-30T00:20:49.257Z,6.20
2019-04-30T00:23:22.397Z,6.23
2019-04-30T00:25:48.413Z,6.28
2019-04-30T00:28:17.098Z,6.32
2019-04-30T00:30:48.343Z,6.31
2019-04-30T00:33:22.156Z,6.28
2019-04-30T00:35:49.745Z,6.25
2019-04-30T00:38:17.851Z,6.20
2019-04-30T00:40:46.614Z,6.19
2019-04-30T00:43:15.610Z,6.15
2019-04-30T00:45:47.380Z,6.23
2019-04-30T00:48:19.329Z,6.22
2019-04-30T00:50:45.987Z,6.19
2019-04-30T00:53:16.500Z,6.11
2019-04-30T00:55:48.387Z,6.08
2019-04-30T00:58:17.507Z,6.05
2019-04-30T01:00:50.036Z,6.07
2019-04-30T01:03:20.086Z,5.97
2019-04-30T01:05:49.794Z,5.89
2019-04-30T01:08:21.070Z,5.89
2019-04-30T01:10:48.903Z,5.85
2019-04-30T01:13:19.203Z,5.85
2019-04-30T01:15:52.251Z,5.83
2019-04-30T01:18:19.338Z,5.75
2019-04-30T01:20:48.765Z,5.57
2019-04-30T01:23:22.093Z,5.39
2019-04-30T01:25:51.472Z,5.38
2019-04-30T01:28:24.132Z,5.43
2019-04-30T01:30:57.949Z,5.42
2019-04-30T01:33:28.469Z,5.54
2019-04-30T01:35:59.542Z,5.47
2019-04-30T01:38:28.677Z,5.48
2019-04-30T01:40:59.622Z,5.52
2019-04-30T01:43:33.526Z,5.56
2019-04-30T01:46:01.803Z,5.43
2019-04-30T01:48:29.926Z,5.29
2019-04-30T01:51:01.071Z,5.32
2019-04-30T01:53:29.173Z,5.30
2019-04-30T01:56:19.184Z,5.29
2019-04-30T01:58:55.671Z,5.27
2019-04-30T02:01:31.115Z,5.22
2019-04-30T02:03:59.511Z,5.20
2019-04-30T02:06:30.483Z,5.20
2019-04-30T02:09:00.956Z,5.18
2019-04-30T02:11:30.419Z,5.19
2019-04-30T02:13:59.246Z,5.22
2019-04-30T02:16:28.957Z,5.22
2019-04-30T02:18:59.653Z,5.18
2019-04-30T02:21:30.056Z,5.20
2019-04-30T02:24:00.072Z,5.17
2019-04-30T02:26:28.775Z,5.09
2019-04-30T02:28:59.317Z,5.14
2019-04-30T02:31:30.776Z,5.11
2019-04-30T02:34:05.898Z,5.06
2019-04-30T02:36:45.390Z,5.03
2019-04-30T02:39:14.051Z,5.00
2019-04-30T02:41:45.570Z,4.99
2019-04-30T02:44:15.521Z,4.95
2019-04-30T02:46:46.133Z,4.94
2019-04-30T02:49:20.166Z,4.96
2019-04-30T02:51:49.978Z,4.96
2019-04-30T02:54:24.706Z,4.96
2019-04-30T02:56:54.405Z,4.90
2019-04-30T02:59:23.078Z,4.88
2019-04-30T03:01:51.839Z,4.87
2019-04-30T03:04:20.510Z,4.79
2019-04-30T03:06:50.224Z,4.79
2019-04-30T03:09:20.127Z,4.69
2019-04-30T03:11:50.115Z,4.73
2019-04-30T03:14:20.055Z,4.77
2019-04-30T03:16:53.568Z,4.73
2019-04-30T03:19:23.889Z,4.70
2019-04-30T03:21:54.235Z,4.72
2019-04-30T03:24:24.412Z,4.69
2019-04-30T03:26:53.214Z,4.65
2019-04-30T03:29:24.046Z,4.71
2019-04-30T03:31:52.899Z,4.66
2019-04-30T03:34:25.633Z,4.61
2019-04-30T03:36:52.141Z,4.62
2019-04-30T03:39:20.807Z,4.63
2019-04-30T03:41:50.198Z,4.59
2019-04-30T03:44:25.593Z,4.47
2019-04-30T03:46:51.225Z,4.33
2019-04-30T03:49:20.390Z,4.18
2019-04-30T03:51:49.842Z,4.23
2019-04-30T03:54:19.510Z,4.31
2019-04-30T03:56:50.243Z,4.42
2019-04-30T03:59:20.665Z,4.43
2019-04-30T04:01:51.047Z,4.48
2019-04-30T04:04:21.340Z,4.21
2019-04-30T04:06:51.653Z,4.20
2019-04-30T04:09:22.474Z,4.25
2019-04-30T04:11:59.847Z,4.37
2019-04-30T04:14:29.628Z,4.45
2019-04-30T04:17:00.065Z,4.51
2019-04-30T04:19:29.224Z,4.44
2019-04-30T04:22:00.450Z,4.44
2019-04-30T04:24:33.559Z,4.46
2019-04-30T04:27:02.391Z,4.52
2019-04-30T04:29:32.522Z,4.56
2019-04-30T04:32:01.188Z,4.46
2019-04-30T04:34:30.351Z,4.35
2019-04-30T04:37:00.156Z,4.34
2019-04-30T04:39:29.747Z,4.37
2019-04-30T04:42:00.020Z,4.42
2019-04-30T04:44:29.474Z,4.47
2019-04-30T04:47:00.168Z,4.55
2019-04-30T04:49:30.556Z,4.70
2019-04-30T04:51:59.497Z,4.70
2019-04-30T04:54:30.045Z,4.79
2019-04-30T04:57:14.015Z,4.75
2019-04-30T04:59:30.889Z,4.67
2019-04-30T05:02:01.203Z,4.68
2019-04-30T05:04:29.974Z,4.66
2019-04-30T05:07:00.063Z,4.72
2019-04-30T05:09:29.013Z,4.71
2019-04-30T05:11:58.649Z,4.73
2019-04-30T05:14:28.820Z,4.71
2019-04-30T05:16:58.931Z,4.81
2019-04-30T05:19:28.604Z,4.89
2019-04-30T05:21:59.602Z,5.05
2019-04-30T05:24:29.480Z,5.20
2019-04-30T05:26:58.673Z,5.38
2019-04-30T05:29:28.961Z,5.54
2019-04-30T05:31:58.564Z,5.65
2019-04-30T05:34:28.829Z,5.83
2019-04-30T05:37:01.002Z,6.00
2019-04-30T05:39:29.806Z,6.15
2019-04-30T05:42:01.498Z,6.30
2019-04-30T05:44:30.215Z,6.45
2019-04-30T05:46:59.317Z,6.58
2019-04-30T05:49:28.767Z,6.72
2019-04-30T05:51:59.326Z,6.86
2019-04-30T05:54:29.222Z,7.02
2019-04-30T05:56:59.403Z,7.07
2019-04-30T05:59:31.082Z,7.17
2019-04-30T06:01:59.799Z,7.27
2019-04-30T06:04:29.393Z,7.40
2019-04-30T06:06:58.715Z,7.54
2019-04-30T06:09:48.532Z,7.64
2019-04-30T06:12:28.429Z,7.76
2019-04-30T06:15:11.747Z,7.88
2019-04-30T06:18:00.067Z,7.97
2019-04-30T06:20:21.048Z,8.11
2019-04-30T06:22:52.285Z,8.21
2019-04-30T06:25:31.115Z,8.32
2019-04-30T06:27:52.470Z,8.46
2019-04-30T06:30:21.265Z,8.61
2019-04-30T06:32:50.017Z,8.75
2019-04-30T06:35:19.458Z,8.88
2019-04-30T06:37:48.895Z,9.08
2019-04-30T06:40:19.626Z,9.19
2019-04-30T06:42:50.302Z,9.36
2019-04-30T06:45:19.310Z,9.57
2019-04-30T06:47:49.109Z,9.66
2019-04-30T06:50:19.370Z,9.84
2019-04-30T06:52:56.270Z,10.09
2019-04-30T07:25:39.136Z,18.03
2019-04-30T07:28:08.972Z,18.94
2019-04-30T07:30:39.563Z,19.56
2019-04-30T07:33:09.507Z,20.07
2019-04-30T07:35:39.907Z,20.55
2019-04-30T07:38:09.294Z,21.03
2019-04-30T07:40:39.020Z,21.38
2019-04-30T07:43:09.968Z,21.92
2019-04-30T07:45:39.749Z,22.35
2019-04-30T07:48:09.529Z,22.51
2019-04-30T07:50:41.041Z,22.86
2019-04-30T07:53:11.283Z,23.13
2019-04-30T07:55:41.247Z,23.37
2019-04-30T07:58:09.992Z,24.00
2019-04-30T08:00:40.228Z,23.86
2019-04-30T08:03:11.204Z,24.43
2019-04-30T08:05:44.933Z,24.74
2019-04-30T08:08:20.978Z,25.20
2019-04-30T08:10:44.100Z,25.72
2019-04-30T08:13:15.199Z,25.81
2019-04-30T08:15:43.280Z,25.74
2019-04-30T08:18:13.034Z,25.82
2019-04-30T08:20:41.696Z,26.30
2019-04-30T08:23:20.300Z,26.28
2019-04-30T08:25:40.946Z,26.30
2019-04-30T08:28:09.701Z,26.90
2019-04-30T08:30:39.124Z,27.16
2019-04-30T08:33:09.473Z,27.54
2019-04-30T08:35:39.776Z,27.87
2019-04-30T08:38:10.727Z,28.10
2019-04-30T08:40:52.814Z,28.66
2019-04-30T08:43:10.041Z,28.77
2019-04-30T08:45:38.725Z,28.86
2019-04-30T08:48:09.115Z,28.81
2019-04-30T08:50:39.291Z,29.08
2019-04-30T08:53:11.459Z,29.25
2019-04-30T08:55:40.520Z,29.59
2019-04-30T08:58:14.797Z,29.35
2019-04-30T09:00:40.047Z,29.59
2019-04-30T09:03:09.341Z,29.63
2019-04-30T09:05:41.289Z,29.88
2019-04-30T09:08:11.645Z,30.29
2019-04-30T09:10:41.803Z,30.49
2019-04-30T09:13:10.477Z,30.62
2019-04-30T09:15:40.092Z,30.52
2019-04-30T09:18:12.429Z,30.63
2019-04-30T09:20:40.895Z,30.64
2019-04-30T09:23:11.246Z,30.91
2019-04-30T09:25:40.036Z,31.60
2019-04-30T09:28:10.801Z,31.74
2019-04-30T09:30:39.464Z,31.72
2019-04-30T09:33:10.923Z,31.91
2019-04-30T09:35:39.510Z,31.90
2019-04-30T09:38:09.205Z,32.35
2019-04-30T09:40:41.635Z,32.73
2019-04-30T09:43:09.961Z,32.93
2019-04-30T09:45:38.705Z,33.12
2019-04-30T09:48:09.427Z,33.23
2019-04-30T09:50:39.105Z,32.97
2019-04-30T09:53:09.901Z,33.29
2019-04-30T09:55:40.447Z,33.12
2019-04-30T09:58:17.211Z,33.35
2019-04-30T10:00:39.579Z,33.07
2019-04-30T10:03:10.388Z,33.05
2019-04-30T10:05:39.139Z,33.78
2019-04-30T10:08:07.934Z,33.74
2019-04-30T10:10:38.837Z,33.31
2019-04-30T10:13:10.006Z,33.72
2019-04-30T10:15:40.330Z,33.19
2019-04-30T10:18:09.909Z,33.05
2019-04-30T10:20:47.053Z,32.89
2019-04-30T10:23:15.759Z,33.19
2019-04-30T10:25:44.420Z,32.54
2019-04-30T10:28:13.100Z,32.29
2019-04-30T10:30:41.866Z,32.47
2019-04-30T10:33:10.580Z,32.63
2019-04-30T10:35:39.352Z,32.58
2019-04-30T10:38:09.830Z,32.10
2019-04-30T10:40:39.115Z,31.52
2019-04-30T10:43:08.915Z,31.55
2019-04-30T10:45:39.019Z,31.09
2019-04-30T10:48:07.736Z,30.12
2019-04-30T10:50:40.963Z,29.99
2019-04-30T10:53:12.254Z,30.08
2019-04-30T10:55:40.335Z,29.90
2019-04-30T10:58:09.009Z,29.27
2019-04-30T11:00:39.889Z,29.02
2019-04-30T11:03:19.090Z,28.98
2019-04-30T11:05:41.362Z,29.06
2019-04-30T11:08:11.559Z,29.16
2019-04-30T11:10:40.282Z,29.05
2019-04-30T11:13:08.957Z,28.94
2019-04-30T11:15:39.275Z,28.94
2019-04-30T11:18:08.632Z,28.82
2019-04-30T11:20:39.524Z,29.11
2019-04-30T11:23:14.177Z,29.04
2019-04-30T11:25:40.655Z,29.00
2019-04-30T11:28:09.264Z,29.07
2019-04-30T11:30:39.238Z,28.69
2019-04-30T11:33:12.875Z,28.73
2019-04-30T11:35:41.953Z,28.76
2019-04-30T11:38:10.602Z,28.47
2019-04-30T11:40:39.918Z,28.51
2019-04-30T11:43:10.309Z,28.64
2019-04-30T11:45:53.919Z,28.37
2019-04-30T11:48:22.580Z,28.30
2019-04-30T11:50:54.225Z,28.46
2019-04-30T11:53:27.879Z,28.73
2019-04-30T11:55:53.420Z,28.77
2019-04-30T11:58:22.133Z,28.96
2019-04-30T12:00:50.903Z,29.40
2019-04-30T12:03:25.489Z,29.63
2019-04-30T12:05:58.915Z,29.78
2019-04-30T12:08:29.453Z,29.48
2019-04-30T12:11:09.761Z,29.94
2019-04-30T12:13:38.445Z,30.25
2019-04-30T12:16:08.719Z,30.26
2019-04-30T12:18:38.841Z,30.15
2019-04-30T12:21:07.595Z,30.15
2019-04-30T12:23:36.252Z,30.32
2019-04-30T12:26:04.965Z,30.54
2019-04-30T12:28:33.645Z,30.22
2019-04-30T12:31:02.335Z,30.37
2019-04-30T12:33:30.999Z,30.63
2019-04-30T12:35:59.737Z,30.99
2019-04-30T12:38:29.880Z,30.59
2019-04-30T12:40:58.782Z,30.18
2019-04-30T12:43:27.477Z,29.81
2019-04-30T12:46:03.482Z,29.48
2019-04-30T12:48:31.192Z,29.49
2019-04-30T12:51:17.855Z,29.30
2019-04-30T12:53:48.195Z,29.32
2019-04-30T12:56:27.143Z,29.48
2019-04-30T12:58:56.684Z,30.07
2019-04-30T13:01:25.422Z,29.39
2019-04-30T13:03:58.674Z,29.02
2019-04-30T13:06:25.132Z,28.83
2019-04-30T13:08:54.537Z,28.63
2019-04-30T13:11:24.208Z,28.26
2019-04-30T13:13:56.767Z,27.94
2019-04-30T13:16:26.512Z,27.49
2019-04-30T13:18:55.265Z,27.22
2019-04-30T13:21:25.981Z,27.02
2019-04-30T13:23:54.640Z,26.92
2019-04-30T13:26:23.314Z,26.88
2019-04-30T13:29:05.545Z,26.96
2019-04-30T13:31:34.293Z,27.03
2019-04-30T13:34:23.070Z,27.00
2019-04-30T13:36:51.861Z,26.99
2019-04-30T13:39:27.007Z,26.87
2019-04-30T13:42:01.655Z,26.63
2019-04-30T13:44:41.525Z,26.35
2019-04-30T13:47:10.977Z,25.72
2019-04-30T13:49:39.740Z,25.56
2019-04-30T13:52:10.281Z,25.57
2019-04-30T13:54:38.991Z,25.46
2019-04-30T13:57:09.105Z,25.46
2019-04-30T13:59:38.060Z,25.56
2019-04-30T14:02:08.690Z,25.66
2019-04-30T14:04:47.851Z,25.48
2019-04-30T14:07:27.545Z,25.54
2019-04-30T14:09:56.243Z,25.73
2019-04-30T14:12:25.305Z,25.78
2019-04-30T14:14:55.656Z,25.61
2019-04-30T14:17:24.520Z,25.63
2019-04-30T14:19:53.788Z,25.61
2019-04-30T14:22:22.480Z,25.70
2019-04-30T14:24:52.602Z,25.80
2019-04-30T14:27:21.473Z,26.12
2019-04-30T14:29:52.637Z,26.03
2019-04-30T14:32:21.418Z,26.00
2019-04-30T14:34:50.705Z,25.79
2019-04-30T14:37:20.145Z,25.85
2019-04-30T14:39:49.444Z,25.71
2019-04-30T14:42:20.881Z,25.60
2019-04-30T14:44:52.087Z,25.31
2019-04-30T14:47:26.376Z,25.01
2019-04-30T14:50:02.644Z,24.71
2019-04-30T14:52:30.845Z,24.74
2019-04-30T14:55:18.745Z,24.82
2019-04-30T15:00:59.239Z,24.35
2019-04-30T15:03:31.778Z,24.16
2019-04-30T15:06:00.456Z,24.21
2019-04-30T15:08:29.384Z,24.18
2019-04-30T15:10:58.100Z,24.09
2019-04-30T15:13:29.372Z,23.96
2019-04-30T15:16:03.632Z,23.68
2019-04-30T15:18:29.014Z,23.52
2019-04-30T15:20:59.458Z,23.35
2019-04-30T15:23:37.340Z,23.20
2019-04-30T15:26:21.612Z,23.10
2019-04-30T15:28:41.481Z,22.92
2019-04-30T15:31:10.241Z,22.81
2019-04-30T15:33:40.786Z,22.62
2019-04-30T15:36:11.133Z,22.54
2019-04-30T15:38:59.082Z,22.47
2019-04-30T15:41:28.936Z,22.27
2019-04-30T15:43:57.630Z,22.09
2019-04-30T15:46:26.522Z,21.84
2019-04-30T15:48:55.195Z,21.67
2019-04-30T15:51:23.880Z,21.56
2019-04-30T15:53:52.633Z,21.49
2019-04-30T15:56:34.125Z,21.37
2019-04-30T15:59:12.169Z,21.33
2019-04-30T16:01:46.371Z,21.30
2019-04-30T16:04:18.502Z,21.26
2019-04-30T16:06:49.120Z,21.27
2019-04-30T16:09:25.603Z,21.28
2019-04-30T16:12:00.606Z,21.27
2019-04-30T16:14:33.931Z,21.25
2019-04-30T16:17:06.562Z,21.13
2019-04-30T16:19:35.506Z,21.07
2019-04-30T16:22:04.792Z,21.06
2019-04-30T16:24:33.550Z,21.04
2019-04-30T16:27:02.247Z,21.03
2019-04-30T16:29:30.989Z,21.04
2019-04-30T16:31:59.691Z,21.00
2019-04-30T16:34:30.404Z,20.95
2019-04-30T16:36:59.328Z,20.88
2019-04-30T16:39:28.784Z,20.81
2019-04-30T16:41:59.138Z,20.76
2019-04-30T16:44:31.011Z,20.74
2019-04-30T16:47:12.702Z,20.66
2019-04-30T16:49:30.823Z,20.57
2019-04-30T16:52:01.494Z,20.47
2019-04-30T16:54:30.500Z,20.41
2019-04-30T16:57:04.154Z,20.27
2019-04-30T16:59:42.707Z,20.16
2019-04-30T17:02:12.954Z,20.04
2019-04-30T17:04:49.980Z,19.94
2019-04-30T17:07:32.166Z,19.83
2019-04-30T17:10:18.988Z,19.76
2019-04-30T17:13:01.299Z,19.66
2019-04-30T17:15:34.597Z,19.57
2019-04-30T17:18:03.347Z,19.53
2019-04-30T17:20:32.120Z,19.42
2019-04-30T17:23:00.891Z,19.33
2019-04-30T17:25:30.866Z,19.18
2019-04-30T17:28:01.501Z,19.09
2019-04-30T17:30:30.416Z,19.04
2019-04-30T17:32:59.737Z,18.94
2019-04-30T17:35:28.964Z,18.82
2019-04-30T17:37:57.642Z,18.74
2019-04-30T17:40:29.155Z,18.63
2019-04-30T17:42:57.927Z,18.63
2019-04-30T17:45:26.650Z,18.51
2019-04-30T17:47:55.931Z,18.44
2019-04-30T17:50:24.624Z,18.38
2019-04-30T17:52:53.428Z,18.31
2019-04-30T17:55:22.220Z,18.29
2019-04-30T17:57:50.905Z,18.26
2019-04-30T18:00:22.324Z,18.19
2019-04-30T18:02:50.313Z,18.10
2019-04-30T18:05:19.611Z,18.02
2019-04-30T18:07:49.805Z,17.98
2019-04-30T18:10:20.468Z,17.94
2019-04-30T18:12:49.154Z,17.87
2019-04-30T18:15:19.520Z,17.77
2019-04-30T18:17:49.857Z,17.69
2019-04-30T18:20:26.209Z,17.63
2019-04-30T18:22:56.526Z,17.54
2019-04-30T18:25:36.128Z,17.45
2019-04-30T18:28:05.356Z,17.37
2019-04-30T18:30:39.131Z,17.28
2019-04-30T18:33:09.867Z,17.21
2019-04-30T18:35:38.882Z,17.16
2019-04-30T18:38:11.368Z,17.05
2019-04-30T18:40:42.053Z,16.95
2019-04-30T18:43:12.854Z,16.86
2019-04-30T18:45:43.088Z,16.74
2019-04-30T18:48:12.137Z,16.65
2019-04-30T18:50:40.836Z,16.57
2019-04-30T18:53:11.634Z,16.56
2019-04-30T18:55:40.332Z,16.49
2019-04-30T18:58:10.440Z,16.37
2019-04-30T19:00:40.804Z,16.33
2019-04-30T19:03:10.057Z,16.28
2019-04-30T19:05:40.302Z,16.20
2019-04-30T19:08:25.708Z,16.14
2019-04-30T19:10:56.042Z,16.02
2019-04-30T19:13:38.291Z,15.89
2019-04-30T19:16:24.716Z,15.76
2019-04-30T19:18:56.276Z,15.61
2019-04-30T19:21:25.480Z,15.47
2019-04-30T19:23:54.483Z,15.34
2019-04-30T19:26:23.242Z,15.25
2019-04-30T19:28:53.492Z,15.18
2019-04-30T19:31:24.302Z,15.21
2019-04-30T19:33:54.366Z,15.16
2019-04-30T19:36:34.983Z,15.08
2019-04-30T19:38:53.571Z,14.98
2019-04-30T19:41:28.674Z,14.97
2019-04-30T19:43:57.480Z,14.86
2019-04-30T19:46:26.273Z,14.82
2019-04-30T19:48:55.049Z,14.74
2019-04-30T19:51:23.755Z,14.66
2019-04-30T19:53:52.977Z,14.55
2019-04-30T19:56:21.938Z,14.50
2019-04-30T19:59:02.062Z,14.46
2019-04-30T20:01:23.221Z,14.48
2019-04-30T20:03:51.998Z,14.47
2019-04-30T20:06:22.157Z,14.42
2019-04-30T20:08:50.947Z,14.41
2019-04-30T20:11:19.695Z,14.36
2019-04-30T20:13:49.023Z,14.31
2019-04-30T20:16:19.738Z,14.25
2019-04-30T20:18:51.244Z,14.24
2019-04-30T20:21:28.339Z,14.16
2019-04-30T20:23:52.071Z,14.12
2019-04-30T20:26:20.777Z,14.10
2019-04-30T20:28:50.565Z,14.08
2019-04-30T20:31:19.315Z,14.05
2019-04-30T20:33:48.966Z,14.06
2019-04-30T20:36:19.036Z,14.09
2019-04-30T20:38:55.429Z,14.07
2019-04-30T20:41:25.748Z,14.00
2019-04-30T20:43:54.857Z,13.93
2019-04-30T20:46:34.244Z,13.79
2019-04-30T20:48:55.479Z,13.74
2019-04-30T20:51:24.158Z,13.65
2019-04-30T20:53:52.867Z,13.61
2019-04-30T20:56:22.648Z,13.51
2019-04-30T20:58:57.882Z,13.44
2019-04-30T21:01:24.845Z,13.35
2019-04-30T21:03:53.615Z,13.27
2019-04-30T21:06:22.317Z,13.23
2019-04-30T21:08:51.093Z,13.19
2019-04-30T21:11:19.823Z,13.10
2019-04-30T21:13:49.103Z,13.03
2019-04-30T21:16:17.968Z,12.98
2019-04-30T21:18:46.655Z,12.94
2019-04-30T21:21:15.347Z,12.94
2019-04-30T21:23:44.028Z,12.92
2019-04-30T21:26:15.429Z,12.92
2019-04-30T21:28:44.119Z,12.93
2019-04-30T21:31:30.717Z,12.91
2019-04-30T21:34:19.481Z,12.88
2019-04-30T21:36:59.786Z,12.74
2019-04-30T21:39:28.505Z,12.68
2019-04-30T21:41:59.339Z,12.64
2019-04-30T21:44:27.684Z,12.63
2019-04-30T21:46:56.959Z,12.62
2019-04-30T21:49:25.708Z,12.57
2019-04-30T21:51:55.122Z,12.53
2019-04-30T21:54:23.896Z,12.49
2019-04-30T21:56:52.594Z,12.49
2019-04-30T21:59:24.633Z,12.46
2019-04-30T22:01:53.619Z,12.41
2019-04-30T22:04:23.846Z,12.38
2019-04-30T22:06:52.684Z,12.40
2019-04-30T22:09:21.735Z,12.29
2019-04-30T22:11:50.394Z,12.28
2019-04-30T22:14:19.218Z,12.21
2019-04-30T22:16:49.435Z,12.23
2019-04-30T22:19:18.266Z,12.24
2019-04-30T22:21:47.015Z,12.21
2019-04-30T22:24:20.007Z,12.19
2019-04-30T22:26:48.734Z,12.20
2019-04-30T22:29:19.122Z,12.24
2019-04-30T22:31:49.473Z,12.27
2019-04-30T22:34:18.324Z,12.28
2019-04-30T22:36:48.815Z,12.29
2019-04-30T22:39:19.947Z,12.25
2019-04-30T22:41:48.916Z,12.20
2019-04-30T22:44:17.822Z,12.16
2019-04-30T22:46:46.507Z,12.16
2019-04-30T22:49:16.645Z,12.15
2019-04-30T22:51:45.415Z,12.13
2019-04-30T22:54:14.078Z,12.16
2019-04-30T22:56:42.879Z,12.13
2019-04-30T22:59:11.556Z,12.14
2019-04-30T23:01:58.082Z,12.13
2019-04-30T23:04:30.600Z,12.13
2019-04-30T23:06:59.257Z,12.11
2019-04-30T23:09:27.973Z,12.08
2019-04-30T23:11:56.724Z,12.05
2019-04-30T23:14:25.438Z,12.06
2019-04-30T23:16:55.534Z,12.07
2019-04-30T23:19:24.329Z,12.10
2019-04-30T23:21:53.275Z,12.11
2019-04-30T23:24:21.981Z,12.08
2019-04-30T23:26:50.674Z,12.07
2019-04-30T23:29:19.450Z,12.08
2019-04-30T23:31:48.122Z,12.10
2019-04-30T23:34:18.018Z,12.13
2019-04-30T23:36:47.223Z,12.13
2019-04-30T23:39:15.997Z,12.19
2019-04-30T23:41:44.706Z,12.19
2019-04-30T23:44:13.478Z,12.17
2019-04-30T23:46:43.279Z,12.16
2019-04-30T23:49:11.915Z,12.17
2019-04-30T23:51:42.172Z,12.15
2019-04-30T23:54:10.855Z,12.19
2019-04-30T23:56:42.451Z,12.20
2019-04-30T23:59:11.225Z,12.12
